Porthleven, United Kingdom
Current Conditions -  °F | °C
As of 10:50 PM on Saturday 22 Nov 2014 (Local Time) from EGDR Reporting Station
Light Rain Light Rain  
Wind Chill: 52°   Ceiling: 6000
Heat Index: 52°   Visibility: 6mi
Dew Point: 45°   Wind: 10mph
Humidity: 76%   Direction: 350°N
Pressure: 30"   Gusts: NA
Location:  50.09°N, 5.32°W
Report Text: EGDR 222250Z 35009KT 9999 -RA SCT030 OVC060 11/07 Q1016 BLU
Loading
Personal Weather Stations






























Interactive Weather Map New forecast layout! Learn more

10-Day Weather Forecast

Advertisements
Track Severe Weather on mobile